Time;durP1;ratioP1;P1;durP2;ratioP2;P2;SDS_P1;SDS_P2;PMS_P1;PMS_P2;Temp;Humidity;BMP_temperature;BMP_pressure;BME280_temperature;BME280_humidity;BME280_pressure;Samples;Min_cycle;Max_cycle;Signal;HPM_P1;HPM_P2
2023/08/19 00:00:15;;;;;;;6.35;2.55;;;;;;;21.18;51.59;94934.66;5132500;27;20038;-72
2023/08/19 00:02:41;;;;;;;4.75;2.58;;;;;;;21.17;51.41;94933.84;5133789;27;20031;-72
2023/08/19 00:05:07;;;;;;;4.28;2.70;;;;;;;21.30;51.07;94934.97;5099563;27;20043;-72
2023/08/19 00:07:33;;;;;;;5.35;2.83;;;;;;;21.36;51.37;94937.66;5111497;28;20034;-72
2023/08/19 00:10:01;;;;;;;4.70;2.75;;;;;;;21.30;51.36;94935.78;5114622;28;20031;-72
2023/08/19 00:12:26;;;;;;;5.15;2.58;;;;;;;21.19;51.57;94938.94;5112939;28;20032;-72
2023/08/19 00:14:54;;;;;;;3.13;2.35;;;;;;;21.26;51.21;94928.44;5113031;27;20038;-72
2023/08/19 00:17:19;;;;;;;4.07;2.70;;;;;;;21.48;50.33;94931.88;5123456;27;20288;-72
2023/08/19 00:19:45;;;;;;;4.18;2.58;;;;;;;21.29;50.96;94931.50;5133300;27;20412;-72
2023/08/19 00:22:10;;;;;;;4.40;2.58;;;;;;;21.44;50.46;94943.84;5114316;27;20493;-72
2023/08/19 00:24:36;;;;;;;5.63;2.67;;;;;;;21.50;50.18;94930.69;5095896;28;20032;-72
2023/08/19 00:27:01;;;;;;;4.25;2.65;;;;;;;21.51;50.31;94931.53;5128328;27;20028;-72
2023/08/19 00:29:27;;;;;;;4.22;2.63;;;;;;;21.51;50.28;94928.88;5133132;27;20053;-72
2023/08/19 00:31:52;;;;;;;4.10;2.50;;;;;;;21.41;50.30;94926.56;5133120;27;20042;-72
2023/08/19 00:34:18;;;;;;;5.38;2.75;;;;;;;21.33;50.91;94930.09;5132507;27;20091;-73
2023/08/19 00:36:43;;;;;;;3.63;2.20;;;;;;;21.38;51.14;94917.19;5134340;27;20035;-72
2023/08/19 00:39:09;;;;;;;5.30;2.70;;;;;;;21.22;51.57;94921.88;5115682;27;20066;-72
2023/08/19 00:41:34;;;;;;;3.30;2.50;;;;;;;21.27;51.56;94904.47;5132965;27;20428;-72
2023/08/19 00:44:00;;;;;;;3.95;2.90;;;;;;;21.22;51.44;94903.41;5125071;27;20461;-73
2023/08/19 00:46:25;;;;;;;5.85;2.47;;;;;;;20.98;52.52;94916.81;5113584;28;20039;-72
2023/08/19 00:48:51;;;;;;;7.32;2.72;;;;;;;20.94;51.88;94910.25;5112210;28;20527;-72
2023/08/19 00:51:17;;;;;;;5.18;2.65;;;;;;;21.00;52.11;94911.31;5095148;28;20497;-72
2023/08/19 00:53:43;;;;;;;7.57;2.67;;;;;;;20.82;52.92;94909.13;5112012;27;20472;-72
2023/08/19 00:56:08;;;;;;;4.95;2.30;;;;;;;20.56;53.72;94908.84;5095262;28;20517;-72
2023/08/19 00:58:33;;;;;;;5.45;3.10;;;;;;;20.67;53.31;94911.00;5112032;28;20031;-72
2023/08/19 01:00:59;;;;;;;4.85;2.70;;;;;;;20.61;53.23;94912.56;5112217;28;20027;-72
2023/08/19 01:03:24;;;;;;;4.40;2.53;;;;;;;20.64;53.25;94908.72;5129014;27;20535;-72
2023/08/19 01:06:08;;;;;;;6.18;2.58;;;;;;;20.61;53.04;94920.47;5132608;27;20023;-72
2023/08/19 01:08:40;;;;;;;3.72;2.55;;;;;;;20.37;53.46;94918.97;5119185;27;20074;-72
2023/08/19 01:11:44;;;;;;;4.93;2.78;;;;;;;20.28;53.74;94933.25;5100881;27;20039;-72
2023/08/19 01:14:25;;;;;;;5.32;2.67;;;;;;;20.41;53.43;94914.13;5117007;27;20039;-72
2023/08/19 01:16:50;;;;;;;4.93;2.47;;;;;;;20.32;53.05;94905.50;5116055;27;20039;-72
2023/08/19 01:19:23;;;;;;;3.95;2.60;;;;;;;20.42;53.11;94916.59;5132185;27;20485;-72
2023/08/19 01:21:52;;;;;;;3.88;2.50;;;;;;;20.42;52.84;94913.97;5111304;28;20028;-72
2023/08/19 01:24:18;;;;;;;6.45;3.00;;;;;;;20.50;52.61;94911.22;5094993;28;20067;-72
2023/08/19 01:26:44;;;;;;;4.10;2.70;;;;;;;20.66;52.09;94904.09;5094775;28;20129;-72
2023/08/19 01:29:09;;;;;;;5.95;2.50;;;;;;;20.66;52.85;94909.38;5128989;27;20116;-72
2023/08/19 01:31:35;;;;;;;5.57;2.70;;;;;;;20.52;52.84;94896.00;5131403;27;20023;-72
2023/08/19 01:34:00;;;;;;;8.15;2.80;;;;;;;20.61;52.38;94894.09;5131761;27;20035;-72
2023/08/19 01:36:31;;;;;;;4.00;2.80;;;;;;;20.74;52.11;94899.50;5125498;27;20031;-72
2023/08/19 01:38:59;;;;;;;;;;;;;;;20.66;52.29;94906.72;5104803;27;20027;-72
2023/08/19 01:41:26;;;;;;;4.22;3.00;;;;;;;20.52;52.72;94893.34;5131699;27;19933;-72
2023/08/19 01:43:52;;;;;;;4.45;2.65;;;;;;;20.43;52.90;94897.13;5114993;27;20027;-72
2023/08/19 01:46:17;;;;;;;6.22;2.70;;;;;;;20.40;53.00;94894.84;5082372;28;20112;-72
2023/08/19 01:48:42;;;;;;;5.88;2.70;;;;;;;20.36;53.27;94898.84;5111368;27;20054;-72
2023/08/19 01:51:08;;;;;;;4.25;2.78;;;;;;;20.38;53.03;94882.84;5132819;27;20062;-72
2023/08/19 01:53:33;;;;;;;8.70;2.95;;;;;;;20.24;53.17;94882.69;5132866;27;20063;-72
2023/08/19 01:55:59;;;;;;;5.53;2.97;;;;;;;20.41;53.19;94888.56;5110971;27;20019;-72
2023/08/19 01:58:24;;;;;;;4.28;2.83;;;;;;;20.24;53.62;94887.97;5111559;27;20039;-72
2023/08/19 02:00:49;;;;;;;6.10;2.85;;;;;;;20.32;53.17;94894.97;5119535;27;20038;-72
2023/08/19 02:03:15;;;;;;;3.92;2.80;;;;;;;20.44;53.06;94893.47;5112049;28;20024;-72
2023/08/19 02:05:40;;;;;;;3.75;2.72;;;;;;;20.36;53.04;94875.09;5118514;27;20496;-72
2023/08/19 02:08:06;;;;;;;4.50;2.60;;;;;;;20.23;53.13;94874.97;5130570;27;20035;-72
2023/08/19 02:10:32;;;;;;;4.38;2.78;;;;;;;20.16;53.72;94895.16;5131516;27;20034;-72
2023/08/19 02:12:58;;;;;;;6.35;2.63;;;;;;;20.15;53.53;94883.81;5131229;27;20087;-72
2023/08/19 02:15:23;;;;;;;4.22;3.08;;;;;;;20.04;53.31;94893.00;5109742;27;20043;-72
2023/08/19 02:17:49;;;;;;;5.40;2.92;;;;;;;20.21;53.12;94883.06;5110862;28;20032;-72
2023/08/19 02:20:14;;;;;;;4.22;2.83;;;;;;;20.28;53.18;94896.31;5110534;28;20028;-72
2023/08/19 02:22:40;;;;;;;3.97;2.58;;;;;;;20.24;53.34;94895.88;5110148;28;20028;-72
2023/08/19 02:25:06;;;;;;;7.85;3.17;;;;;;;20.31;53.22;94899.44;5109388;28;20049;-72
2023/08/19 02:27:32;;;;;;;5.53;3.10;;;;;;;20.27;53.36;94897.31;5076835;28;20035;-72
2023/08/19 02:29:58;;;;;;;3.85;2.92;;;;;;;20.23;53.34;94896.06;5093668;28;20040;-72
2023/08/19 02:32:23;;;;;;;4.35;2.90;;;;;;;20.16;53.50;94893.34;5115070;27;20027;-72
2023/08/19 02:34:49;;;;;;;4.55;2.90;;;;;;;20.22;53.25;94889.97;5113405;27;20088;-72
2023/08/19 02:37:14;;;;;;;4.72;2.80;;;;;;;20.33;53.31;94899.22;5108816;28;20485;-72
2023/08/19 02:39:40;;;;;;;4.15;2.90;;;;;;;20.38;52.89;94899.50;5093491;28;20032;-72
2023/08/19 02:42:05;;;;;;;3.50;2.92;;;;;;;20.34;52.85;94889.47;5116686;27;20036;-72
2023/08/19 02:44:31;;;;;;;4.10;2.97;;;;;;;20.27;53.44;94894.69;5121999;27;20028;-72
2023/08/19 02:46:56;;;;;;;4.38;3.20;;;;;;;20.31;53.12;94883.59;5111643;28;20027;-72
2023/08/19 02:49:21;;;;;;;4.22;2.63;;;;;;;20.38;53.32;94893.41;5110159;28;20047;-72
2023/08/19 02:51:47;;;;;;;3.17;2.75;;;;;;;20.40;53.91;94892.22;5110133;28;20512;-72
2023/08/19 02:54:13;;;;;;;3.75;3.00;;;;;;;20.24;53.83;94900.34;5110297;28;20047;-73
2023/08/19 02:56:38;;;;;;;5.38;3.00;;;;;;;20.12;53.75;94884.19;5124366;28;20035;-72
2023/08/19 02:59:04;;;;;;;3.92;2.90;;;;;;;20.25;54.06;94894.06;5129649;28;20421;-73
2023/08/19 03:01:29;;;;;;;3.90;2.55;;;;;;;20.20;54.59;94899.91;5113579;28;20046;-72
2023/08/19 03:03:54;;;;;;;4.10;2.90;;;;;;;20.03;54.39;94896.66;5126462;28;20028;-72
2023/08/19 03:06:20;;;;;;;5.65;3.15;;;;;;;19.88;54.92;94898.47;5115890;28;20481;-72
2023/08/19 03:08:45;;;;;;;4.43;3.00;;;;;;;19.97;54.21;94891.28;5126134;27;20020;-72
2023/08/19 03:11:11;;;;;;;3.90;3.08;;;;;;;19.87;54.51;94902.09;5093046;28;20034;-72
2023/08/19 03:13:36;;;;;;;3.90;2.75;;;;;;;19.86;54.64;94900.44;5111121;28;20051;-72
2023/08/19 03:16:02;;;;;;;4.30;3.15;;;;;;;19.64;56.05;94896.91;5093214;28;20028;-72
2023/08/19 03:18:28;;;;;;;5.32;3.30;;;;;;;19.47;55.75;94887.50;5120637;28;20039;-72
2023/08/19 03:20:57;;;;;;;5.30;3.30;;;;;;;19.52;56.28;94899.13;5131047;28;20095;-72
2023/08/19 03:23:24;;;;;;;4.72;2.85;;;;;;;19.64;55.77;94900.34;5113301;28;20504;-72
2023/08/19 03:25:50;;;;;;;5.15;3.03;;;;;;;19.59;55.75;94901.88;5113933;28;20031;-72
2023/08/19 03:28:15;;;;;;;3.75;3.03;;;;;;;19.59;55.65;94910.59;5113337;27;20043;-72
2023/08/19 03:30:41;;;;;;;5.00;3.35;;;;;;;19.45;55.79;94903.50;5110113;28;20043;-72
2023/08/19 03:33:06;;;;;;;6.13;3.38;;;;;;;19.41;55.46;94894.31;5093597;28;20524;-72
2023/08/19 03:35:33;;;;;;;4.10;3.28;;;;;;;19.56;55.28;94918.06;5116794;27;20035;-72
2023/08/19 03:37:59;;;;;;;4.85;3.17;;;;;;;19.49;55.34;94910.03;5089091;28;20096;-72
2023/08/19 03:40:24;;;;;;;4.20;3.05;;;;;;;19.54;55.64;94912.13;5108762;28;20028;-72
2023/08/19 03:42:50;;;;;;;4.82;2.88;;;;;;;19.62;55.08;94914.69;5114973;28;20032;-72
2023/08/19 03:45:15;;;;;;;5.22;3.10;;;;;;;19.51;55.28;94892.22;5114661;27;20032;-72
2023/08/19 03:47:40;;;;;;;4.30;3.03;;;;;;;19.59;55.83;94904.50;5114326;28;20111;-72
2023/08/19 03:50:06;;;;;;;4.45;2.92;;;;;;;19.57;54.92;94903.88;5113553;28;20432;-72
2023/08/19 03:52:32;;;;;;;4.57;3.35;;;;;;;19.54;54.77;94905.03;5096385;28;20614;-72
2023/08/19 03:54:57;;;;;;;4.70;3.53;;;;;;;19.52;54.65;94899.13;5126587;27;20042;-72
2023/08/19 03:57:23;;;;;;;4.63;3.22;;;;;;;19.67;54.27;94908.88;5131636;27;20042;-72
2023/08/19 03:59:50;;;;;;;3.67;2.95;;;;;;;19.68;54.45;94902.66;5135405;27;20397;-72
2023/08/19 04:02:15;;;;;;;4.68;2.80;;;;;;;19.72;54.20;94904.72;5116715;27;20035;-72
2023/08/19 04:04:58;;;;;;;6.47;3.20;;;;;;;19.53;54.71;94899.94;5129281;27;20035;-72
2023/08/19 04:07:24;;;;;;;4.80;3.40;;;;;;;19.38;55.13;94906.00;5115353;27;20040;-72
2023/08/19 04:09:49;;;;;;;4.22;2.80;;;;;;;19.37;55.14;94906.22;5113138;28;20016;-72
2023/08/19 04:12:15;;;;;;;3.83;2.78;;;;;;;19.38;55.26;94907.84;5098650;28;20406;-72
2023/08/19 04:14:42;;;;;;;4.65;3.55;;;;;;;19.14;55.28;94878.09;5114739;27;20474;-72
2023/08/19 04:17:07;;;;;;;5.13;3.08;;;;;;;19.34;55.02;94904.75;5113911;27;20032;-72
2023/08/19 04:19:33;;;;;;;8.00;3.10;;;;;;;19.36;55.25;94913.28;5111956;28;20617;-72
2023/08/19 04:21:58;;;;;;;7.20;3.38;;;;;;;19.40;55.24;94913.75;5119726;27;20028;-72
2023/08/19 04:24:24;;;;;;;4.18;3.20;;;;;;;19.43;55.32;94905.47;5114203;28;20035;-72
2023/08/19 04:26:49;;;;;;;4.68;3.10;;;;;;;19.52;55.02;94912.31;5114330;28;20098;-72
2023/08/19 04:29:14;;;;;;;3.92;2.90;;;;;;;19.71;54.56;94907.53;5095662;28;20059;-72
2023/08/19 04:31:40;;;;;;;7.65;3.10;;;;;;;19.63;55.16;94917.13;5125423;27;20039;-72
2023/08/19 04:34:05;;;;;;;4.50;3.22;;;;;;;19.70;55.18;94916.47;5134394;27;20038;-72
2023/08/19 04:36:30;;;;;;;4.65;3.25;;;;;;;19.66;54.36;94920.44;5133336;27;20428;-72
2023/08/19 04:38:56;;;;;;;6.72;2.92;;;;;;;19.79;54.11;94916.19;5113917;27;20031;-72
2023/08/19 04:41:22;;;;;;;5.32;3.00;;;;;;;19.87;53.99;94923.19;5112688;28;20028;-73
2023/08/19 04:43:47;;;;;;;4.43;2.88;;;;;;;19.91;54.33;94928.91;5111323;28;20031;-72
2023/08/19 04:46:13;;;;;;;5.75;3.13;;;;;;;20.18;52.74;94925.63;5105228;27;20054;-72
2023/08/19 04:48:38;;;;;;;5.80;3.13;;;;;;;20.64;52.30;94930.66;5131723;27;20027;-72
2023/08/19 04:51:04;;;;;;;4.38;2.97;;;;;;;21.08;50.97;94931.50;5114841;27;20035;-72
2023/08/19 04:53:30;;;;;;;6.57;4.15;;;;;;;21.71;49.94;94929.84;5132784;27;20095;-72
2023/08/19 04:56:02;;;;;;;4.40;3.10;;;;;;;22.50;48.30;94934.75;5134552;27;20052;-73
2023/08/19 04:58:28;;;;;;;5.13;2.58;;;;;;;23.36;46.32;94928.88;5132106;27;20031;-73
2023/08/19 05:00:53;;;;;;;5.63;3.15;;;;;;;24.13;44.11;94931.06;5126081;27;20460;-72
2023/08/19 05:03:18;;;;;;;5.57;3.58;;;;;;;24.66;43.88;94936.22;5112272;28;20023;-72
2023/08/19 05:05:44;;;;;;;5.30;2.85;;;;;;;25.13;42.32;94920.81;5112377;28;20023;-72
2023/08/19 05:08:10;;;;;;;3.97;3.28;;;;;;;25.49;41.20;94927.34;5095654;28;20108;-73
2023/08/19 05:10:36;;;;;;;3.45;2.50;;;;;;;25.69;40.80;94932.53;5115259;27;20035;-72
2023/08/19 05:13:01;;;;;;;3.88;2.90;;;;;;;25.75;40.90;94923.66;5133696;27;20027;-73
2023/08/19 05:15:27;;;;;;;3.17;2.60;;;;;;;25.68;39.82;94931.69;5128257;27;20080;-73
2023/08/19 05:17:52;;;;;;;4.78;2.60;;;;;;;25.60;40.95;94931.94;5102733;27;20035;-73
2023/08/19 05:20:18;;;;;;;4.68;2.78;;;;;;;25.57;40.17;94929.72;5129566;27;20072;-73
2023/08/19 05:22:43;;;;;;;4.88;2.88;;;;;;;25.39;40.27;94933.16;5129871;27;20416;-73
2023/08/19 05:25:09;;;;;;;5.53;2.90;;;;;;;25.07;40.69;94927.00;5128703;27;20409;-73
2023/08/19 05:27:34;;;;;;;2.70;2.28;;;;;;;24.97;40.73;94928.28;5116478;27;20493;-73
2023/08/19 05:30:00;;;;;;;3.38;2.55;;;;;;;24.74;41.10;94920.88;5115979;27;20043;-73
2023/08/19 05:32:25;;;;;;;6.20;2.50;;;;;;;24.85;41.11;94924.69;5130199;27;20470;-73
2023/08/19 05:34:51;;;;;;;6.10;2.42;;;;;;;24.50;41.03;94924.25;5107101;27;20042;-73
2023/08/19 05:37:16;;;;;;;5.97;2.65;;;;;;;24.47;41.77;94922.00;5126950;27;20042;-72
2023/08/19 05:39:41;;;;;;;5.00;2.88;;;;;;;24.51;41.36;94929.31;5105122;27;20089;-72
2023/08/19 05:42:07;;;;;;;4.15;2.90;;;;;;;24.37;41.93;94921.59;5130867;27;20031;-73
2023/08/19 05:44:32;;;;;;;4.43;2.63;;;;;;;24.27;42.43;94917.56;5131596;27;20026;-72
2023/08/19 05:46:58;;;;;;;4.30;2.78;;;;;;;24.22;41.77;94929.81;5132923;27;20118;-72
2023/08/19 05:49:23;;;;;;;3.72;2.72;;;;;;;24.17;42.15;94924.31;5129415;27;20504;-72
2023/08/19 05:51:48;;;;;;;5.63;2.75;;;;;;;24.26;42.04;94921.22;5126671;27;20027;-72
2023/08/19 05:54:14;;;;;;;3.55;2.55;;;;;;;24.39;41.74;94920.38;5105590;28;20097;-72
2023/08/19 05:56:39;;;;;;;3.28;2.47;;;;;;;24.34;41.65;94928.13;5110207;28;20035;-73
2023/08/19 05:59:05;;;;;;;4.15;2.70;;;;;;;24.43;41.54;94920.75;5125063;27;20103;-72
2023/08/19 06:01:31;;;;;;;3.50;2.63;;;;;;;24.59;41.65;94924.81;5091570;27;20043;-72
2023/08/19 06:03:57;;;;;;;3.80;2.83;;;;;;;24.68;42.11;94899.63;5123674;27;20417;-73
2023/08/19 06:06:22;;;;;;;6.57;3.22;;;;;;;24.75;41.75;94913.69;5105173;27;20035;-72
2023/08/19 06:08:47;;;;;;;7.38;2.90;;;;;;;24.96;40.80;94929.31;5123713;27;20024;-72
2023/08/19 06:11:13;;;;;;;5.57;3.03;;;;;;;24.76;41.53;94928.59;5106482;28;20043;-75
2023/08/19 06:13:38;;;;;;;5.60;2.97;;;;;;;25.02;41.72;94938.28;5112691;27;20054;-73
2023/08/19 06:16:04;;;;;;;6.28;2.72;;;;;;;24.58;42.20;94939.94;5116259;27;20520;-73
2023/08/19 06:18:30;;;;;;;5.57;2.90;;;;;;;24.87;41.70;94938.56;5126001;27;20023;-73
2023/08/19 06:20:56;;;;;;;7.75;3.00;;;;;;;24.90;41.99;94951.41;5107730;27;20624;-71
2023/08/19 06:23:21;;;;;;;7.32;3.25;;;;;;;24.90;41.80;94937.31;5101467;27;20027;-73
2023/08/19 06:25:51;;;;;;;5.60;2.90;;;;;;;25.05;41.96;94947.69;5104516;27;20561;-74
2023/08/19 06:28:17;;;;;;;5.82;2.90;;;;;;;25.65;41.01;94950.75;5101712;27;20032;-73
2023/08/19 06:30:43;;;;;;;5.25;3.00;;;;;;;25.37;41.45;94953.81;5102208;27;20432;-74
2023/08/19 06:33:09;;;;;;;6.45;2.88;;;;;;;25.27;42.08;94953.47;5098529;27;20413;-73
2023/08/19 06:35:35;;;;;;;5.53;3.10;;;;;;;25.36;41.46;94957.53;5120062;27;20038;-74
2023/08/19 06:38:05;;;;;;;7.45;4.18;;;;;;;25.53;40.79;94955.16;5117627;27;20033;-75
2023/08/19 06:40:31;;;;;;;8.50;3.30;;;;;;;25.87;40.67;94951.19;5106867;27;20119;-74
2023/08/19 06:42:57;;;;;;;7.45;4.03;;;;;;;25.78;40.56;94947.97;5123033;27;20102;-73
2023/08/19 06:45:23;;;;;;;5.35;3.47;;;;;;;25.91;40.77;94951.56;5108454;28;20548;-71
2023/08/19 06:47:48;;;;;;;7.18;3.10;;;;;;;25.83;39.98;94940.19;5098013;28;20035;-72
2023/08/19 06:50:14;;;;;;;4.80;3.25;;;;;;;25.94;40.20;94948.50;5112093;28;20080;-73
2023/08/19 06:52:40;;;;;;;4.65;3.00;;;;;;;25.96;39.53;94941.09;5125690;27;20490;-73
2023/08/19 06:55:06;;;;;;;7.28;3.10;;;;;;;26.08;39.28;94945.47;5115259;28;20401;-73
2023/08/19 06:57:49;;;;;;;3.85;2.47;;;;;;;26.00;39.21;94940.44;5123287;28;20425;-72
2023/08/19 07:00:14;;;;;;;3.47;2.42;;;;;;;26.14;37.68;94933.13;5120420;28;20031;-75
2023/08/19 07:02:40;;;;;;;4.55;2.40;;;;;;;26.45;36.10;94939.34;5113123;28;20405;-76
2023/08/19 07:05:13;;;;;;;3.60;2.22;;;;;;;26.51;37.17;94943.81;5130370;28;20114;-76
2023/08/19 07:07:39;;;;;;;4.22;2.13;;;;;;;26.24;36.68;94932.59;5111001;28;20031;-76
2023/08/19 07:10:05;;;;;;;3.25;2.53;;;;;;;26.57;35.06;94936.78;5114212;28;20019;-73
2023/08/19 07:12:32;;;;;;;3.67;2.00;;;;;;;26.64;35.39;94932.19;5128719;27;20039;-73
2023/08/19 07:14:57;;;;;;;3.13;2.08;;;;;;;26.90;34.78;94936.34;5131623;27;20038;-73
2023/08/19 07:17:23;;;;;;;3.35;2.10;;;;;;;26.89;35.57;94935.56;5124889;27;20176;-73
2023/08/19 07:19:48;;;;;;;4.32;2.00;;;;;;;26.92;34.53;94940.44;5129841;27;20027;-72
2023/08/19 07:22:14;;;;;;;5.28;2.10;;;;;;;27.07;34.73;94936.53;5105369;28;20089;-73
2023/08/19 07:24:42;;;;;;;3.33;2.00;;;;;;;27.26;35.38;94940.00;5105197;28;20028;-74
2023/08/19 07:27:08;;;;;;;5.15;2.00;;;;;;;27.36;34.55;94929.59;5117058;27;20028;-74
2023/08/19 07:29:35;;;;;;;4.18;2.08;;;;;;;27.74;33.11;94921.16;5104569;27;20039;-75
2023/08/19 07:32:01;;;;;;;5.03;1.83;;;;;;;27.78;30.39;94932.19;5105204;28;20047;-75
2023/08/19 07:34:27;;;;;;;2.97;1.90;;;;;;;27.85;30.94;94916.91;5108451;28;20028;-72
2023/08/19 07:36:52;;;;;;;5.18;1.98;;;;;;;28.24;31.49;94925.22;5126165;27;20084;-75
2023/08/19 07:39:18;;;;;;;3.53;2.22;;;;;;;28.10;32.77;94929.19;5100849;28;20027;-73
2023/08/19 07:41:43;;;;;;;3.42;2.08;;;;;;;28.24;32.62;94911.88;5114916;27;20035;-72
2023/08/19 07:44:08;;;;;;;3.20;1.70;;;;;;;28.24;30.37;94919.91;5115474;27;20519;-76
2023/08/19 07:46:34;;;;;;;5.47;2.00;;;;;;;28.20;31.52;94932.09;5108430;27;20031;-73
2023/08/19 07:48:59;;;;;;;6.18;1.90;;;;;;;28.00;32.01;94930.59;5131719;27;20023;-72
2023/08/19 07:51:25;;;;;;;3.33;2.00;;;;;;;27.81;32.33;94915.75;5126867;27;20032;-77
2023/08/19 07:53:50;;;;;;;5.95;2.05;;;;;;;27.79;32.56;94942.66;5114947;27;20040;-72
2023/08/19 07:56:17;;;;;;;2.55;1.88;;;;;;;27.82;30.45;94914.69;5113695;27;20437;-73
2023/08/19 07:58:42;;;;;;;5.40;2.20;;;;;;;27.62;31.66;94926.50;5112010;27;20054;-73
2023/08/19 08:01:10;;;;;;;3.63;1.90;;;;;;;27.79;32.92;94923.97;5102434;27;20035;-73
2023/08/19 08:03:36;;;;;;;4.88;2.10;;;;;;;27.89;32.66;94922.56;5155525;27;20040;-73
2023/08/19 08:06:02;;;;;;;2.67;2.13;;;;;;;28.00;31.75;94922.59;5140600;27;20049;-73
2023/08/19 08:08:27;;;;;;;5.00;2.45;;;;;;;28.08;31.79;94924.06;5132953;27;20035;-73
2023/08/19 08:10:53;;;;;;;4.03;2.33;;;;;;;28.12;31.06;94921.78;5133771;27;20030;-73
2023/08/19 08:13:18;;;;;;;3.47;2.10;;;;;;;28.12;32.27;94932.47;5134640;27;20031;-73
2023/08/19 08:15:44;;;;;;;4.47;2.00;;;;;;;28.25;31.55;94913.50;5133499;27;20042;-73
2023/08/19 08:18:09;;;;;;;5.65;2.20;;;;;;;28.21;31.43;94920.38;5133125;27;20023;-73
2023/08/19 08:20:34;;;;;;;10.40;2.65;;;;;;;28.14;32.01;94925.00;5132594;27;20031;-73
2023/08/19 08:23:00;;;;;;;5.72;2.50;;;;;;;28.39;32.05;94925.56;5130843;27;20473;-73
2023/08/19 08:25:26;;;;;;;3.97;2.10;;;;;;;28.13;31.75;94918.06;5114083;27;20088;-73
2023/08/19 08:27:51;;;;;;;5.47;2.45;;;;;;;28.15;32.70;94918.63;5131137;27;20027;-73
2023/08/19 08:30:17;;;;;;;4.25;2.05;;;;;;;28.18;32.78;94926.19;5114022;27;20035;-73
2023/08/19 08:32:42;;;;;;;3.33;2.22;;;;;;;28.17;33.10;94919.22;5123205;27;20509;-73
2023/08/19 08:35:08;;;;;;;3.53;2.33;;;;;;;28.15;32.70;94910.63;5110477;28;20463;-73
2023/08/19 08:37:33;;;;;;;4.45;2.20;;;;;;;28.01;32.97;94918.06;5112104;28;20394;-73
2023/08/19 08:39:59;;;;;;;3.45;2.17;;;;;;;28.07;33.41;94920.59;5112535;28;20038;-73
2023/08/19 08:42:24;;;;;;;4.97;2.90;;;;;;;27.93;33.72;94916.56;5094935;28;20470;-73
2023/08/19 08:44:50;;;;;;;4.32;2.20;;;;;;;27.99;33.04;94918.28;5095477;28;20028;-73
2023/08/19 08:47:15;;;;;;;6.10;2.38;;;;;;;28.12;32.49;94906.56;5113465;28;20028;-73
2023/08/19 08:49:43;;;;;;;3.38;2.30;;;;;;;28.31;32.07;94909.09;5095453;28;20413;-73
2023/08/19 08:52:08;;;;;;;3.83;2.15;;;;;;;28.40;32.29;94907.69;5129305;27;20104;-73
2023/08/19 08:54:34;;;;;;;2.63;1.83;;;;;;;28.51;31.42;94899.66;5134270;27;20501;-73
2023/08/19 08:57:01;;;;;;;3.30;1.80;;;;;;;28.70;30.58;94912.84;5132677;27;20030;-73
2023/08/19 08:59:27;;;;;;;4.07;1.92;;;;;;;28.38;30.44;94918.59;5131013;27;20031;-73
2023/08/19 09:01:53;;;;;;;3.47;1.80;;;;;;;28.54;30.73;94916.28;5132627;27;20084;-73
2023/08/19 09:04:18;;;;;;;3.58;2.00;;;;;;;28.86;30.22;94921.97;5132458;27;20439;-72
2023/08/19 09:06:44;;;;;;;5.15;1.95;;;;;;;28.76;30.02;94917.25;5132616;27;20049;-72
2023/08/19 09:09:12;;;;;;;5.22;1.98;;;;;;;28.86;30.29;94922.78;5093850;28;20039;-73
2023/08/19 09:11:38;;;;;;;5.88;1.98;;;;;;;28.83;30.06;94919.78;5094944;28;20046;-73
2023/08/19 09:14:29;;;;;;;5.53;2.50;;;;;;;28.92;29.53;94921.03;5094850;28;20053;-73
2023/08/19 09:16:54;;;;;;;;;;;;;;;28.85;28.86;94921.16;5113550;28;20039;-73
2023/08/19 09:19:19;;;;;;;4.17;1.90;;;;;;;28.90;29.38;94901.75;5130251;27;19915;-73
2023/08/19 09:21:45;;;;;;;4.35;2.00;;;;;;;29.08;29.56;94919.47;5132275;27;20035;-73
2023/08/19 09:24:14;;;;;;;3.15;1.90;;;;;;;28.89;29.87;94921.47;5097884;27;20055;-73
2023/08/19 09:26:40;;;;;;;5.70;2.20;;;;;;;28.67;30.54;94903.47;5128929;27;20036;-73
2023/08/19 09:29:06;;;;;;;2.67;1.70;;;;;;;28.51;29.54;94937.06;5111279;28;20031;-73
2023/08/19 09:31:32;;;;;;;4.03;1.98;;;;;;;28.52;29.32;94916.50;5112516;28;20034;-73
2023/08/19 09:33:58;;;;;;;3.17;2.00;;;;;;;28.41;29.28;94918.13;5094474;28;20040;-72
2023/08/19 09:36:24;;;;;;;7.25;2.20;;;;;;;28.54;29.85;94911.75;5119980;27;20031;-72
2023/08/19 09:38:53;;;;;;;2.88;1.67;;;;;;;28.24;29.75;94925.22;5131855;27;20080;-73
2023/08/19 09:41:19;;;;;;;2.53;1.90;;;;;;;28.45;29.99;94907.81;5131862;27;20069;-73
2023/08/19 09:43:46;;;;;;;4.97;1.80;;;;;;;28.48;30.29;94904.69;5132828;27;20035;-73
2023/08/19 09:46:13;;;;;;;7.72;2.20;;;;;;;28.58;30.25;94910.19;5109835;28;20035;-73
2023/08/19 09:48:39;;;;;;;5.95;1.80;;;;;;;28.83;30.65;94907.22;5113729;27;20011;-73
2023/08/19 09:51:08;;;;;;;4.30;2.08;;;;;;;28.87;29.78;94919.06;5130986;27;20106;-73
2023/08/19 09:53:33;;;;;;;2.70;1.98;;;;;;;28.94;29.17;94903.69;5112052;27;20043;-73
2023/08/19 09:55:59;;;;;;;2.75;2.13;;;;;;;28.78;30.77;94904.47;5111127;28;20432;-73
2023/08/19 09:58:25;;;;;;;3.90;2.00;;;;;;;29.05;30.50;94902.03;5110951;28;20035;-73
2023/08/19 10:00:50;;;;;;;2.60;2.00;;;;;;;29.24;29.81;94891.94;5109666;28;20031;-73
2023/08/19 10:03:16;;;;;;;4.90;2.00;;;;;;;29.33;27.91;94892.34;5110274;28;20086;-73
2023/08/19 10:05:42;;;;;;;3.25;1.73;;;;;;;29.33;27.81;94895.81;5111032;28;20035;-73
2023/08/19 10:08:17;;;;;;;4.75;2.10;;;;;;;29.42;28.45;94906.97;5093699;28;20032;-73
2023/08/19 10:10:43;;;;;;;5.05;2.30;;;;;;;29.27;28.64;94896.81;5110933;28;20034;-73
2023/08/19 10:13:08;;;;;;;5.43;2.20;;;;;;;29.29;28.72;94894.69;5096970;27;20031;-73
2023/08/19 10:15:34;;;;;;;2.60;1.83;;;;;;;29.27;27.83;94896.81;5110507;28;20445;-73
2023/08/19 10:18:02;;;;;;;4.28;1.90;;;;;;;29.31;27.60;94891.78;5126122;27;20053;-73
2023/08/19 10:20:28;;;;;;;2.58;2.00;;;;;;;29.36;27.81;94894.53;5092025;27;20511;-72
2023/08/19 10:22:55;;;;;;;5.53;2.30;;;;;;;29.52;28.19;94890.25;5104301;27;20046;-72
2023/08/19 10:25:21;;;;;;;3.95;1.70;;;;;;;29.52;27.69;94882.22;5126579;27;20027;-71
2023/08/19 10:27:46;;;;;;;3.15;2.08;;;;;;;29.53;27.44;94905.25;5129827;27;20489;-71
2023/08/19 10:30:28;;;;;;;3.17;2.10;;;;;;;29.16;27.83;94911.06;5124687;27;20022;-73
2023/08/19 10:32:53;;;;;;;5.07;2.20;;;;;;;29.01;28.57;94884.84;5111472;27;20023;-71
2023/08/19 10:35:18;;;;;;;2.63;1.85;;;;;;;29.13;28.74;94888.28;5105297;27;20088;-72
2023/08/19 10:37:50;;;;;;;2.65;1.80;;;;;;;29.24;28.68;94889.25;5110049;28;20493;-71
2023/08/19 10:40:25;;;;;;;3.65;2.03;;;;;;;29.12;28.77;94893.88;5107037;27;20518;-72
2023/08/19 10:42:57;;;;;;;3.60;2.28;;;;;;;28.99;29.27;94880.78;5121305;27;20046;-73
2023/08/19 10:45:22;;;;;;;4.78;2.10;;;;;;;28.96;29.42;94888.22;5097355;28;20027;-73
2023/08/19 10:47:50;;;;;;;5.80;2.13;;;;;;;28.86;29.67;94887.22;5119667;27;20038;-74
2023/08/19 10:50:16;;;;;;;3.97;2.10;;;;;;;28.86;29.44;94901.41;5100814;28;20507;-73
2023/08/19 10:52:58;;;;;;;4.55;2.10;;;;;;;28.89;29.99;94894.75;5125995;27;20050;-73
2023/08/19 10:55:23;;;;;;;3.00;1.95;;;;;;;29.04;30.57;94900.41;5128431;27;20110;-73
2023/08/19 10:57:48;;;;;;;5.20;2.20;;;;;;;28.96;29.84;94888.22;5128614;28;20490;-73
2023/08/19 11:00:14;;;;;;;5.50;2.30;;;;;;;28.90;29.88;94881.16;5107694;28;20027;-73
2023/08/19 11:02:40;;;;;;;3.88;2.05;;;;;;;29.00;30.81;94879.72;5077811;28;20558;-73
2023/08/19 11:05:06;;;;;;;2.75;1.90;;;;;;;29.14;29.28;94891.75;5107399;28;20461;-73
2023/08/19 11:07:33;;;;;;;4.35;2.42;;;;;;;29.21;29.41;94892.44;5128694;28;20042;-73
2023/08/19 11:09:58;;;;;;;4.15;2.17;;;;;;;29.24;30.07;94886.59;5107539;28;20197;-73
2023/08/19 11:12:26;;;;;;;4.65;1.88;;;;;;;29.38;30.45;94898.59;5080021;28;20096;-75
2023/08/19 11:14:52;;;;;;;4.03;2.03;;;;;;;29.53;28.40;94873.97;5143758;27;20033;-73
2023/08/19 11:17:19;;;;;;;5.57;2.22;;;;;;;29.51;28.48;94892.13;5127867;28;20112;-73
2023/08/19 11:19:46;;;;;;;5.28;2.50;;;;;;;29.45;30.22;94881.56;5103189;28;20043;-73
2023/08/19 11:22:13;;;;;;;3.72;2.17;;;;;;;29.75;29.92;94883.94;5120039;27;20042;-73
2023/08/19 11:24:38;;;;;;;5.38;2.60;;;;;;;29.83;29.14;94873.63;5108377;28;20095;-73
2023/08/19 11:27:03;;;;;;;3.67;2.25;;;;;;;29.88;29.29;94880.94;5103799;28;20505;-73
2023/08/19 11:29:29;;;;;;;3.05;1.92;;;;;;;29.90;29.18;94880.69;5108772;28;20032;-73